Gipsy 3 — FI3409 — position and weather

sailwx.info

Track history (hours):
 
Tides and Currents Weather Stations Pressure Air Temp Water Temp Dewpoint Dewpoint Depression Visibility Wind Speed Wind Dir Waves Ship Positions

Gipsy 3

Last reported at 2017-Aug-21 15:31 UTC. Time now 2017-Sep-20 22:06 UTC.
Position N 47°19' W 003°01'.
Warning: this ship's position is 30 days out of date.

Length 9 m.

Type: Sailing vessel. MMSI: 227170890.

Date/timePositionNaut miles runAvg speedWind from/ knotsBaromVisibWave heightAir tempDewpointWater temp
2017-Aug-21 15:31N 47°19' W 003°01'1 3.5
2017-Aug-21 15:06N 47°19' W 002°59'0 3.3
2017-Aug-21 14:59N 47°20' W 002°59'2 3.3
2017-Aug-21 14:23N 47°21' W 002°57'1 3.7
2017-Aug-21 13:59N 47°23' W 002°56'2 3.8
2017-Aug-21 13:30N 47°24' W 002°56'2 3.5
2017-Aug-21 12:59N 47°26' W 002°56'2 3.4
2017-Aug-21 12:30N 47°28' W 002°56'2 3.2
2017-Aug-21 12:00N 47°29' W 002°56'2 3.2
2017-Aug-21 11:27N 47°31' W 002°55'2 3.7
2017-Aug-21 11:00N 47°33' W 002°55'2 4.7
2017-Aug-21 10:30N 47°34' W 002°52'2 3.9
2017-Aug-21 09:58N 47°34' W 002°49'0 0.0
2017-Aug-21 09:28N 47°34' W 002°49'0 0.0
2017-Aug-21 08:59N 47°34' W 002°49'0 0.0
2017-Aug-21 08:29N 47°34' W 002°49'0 0.0
2017-Aug-21 07:50N 47°34' W 002°49'1 2.4
2017-Aug-21 07:30N 47°33' W 002°50'1 1.3
2017-Aug-21 07:00N 47°33' W 002°51'0 0.8
2017-Aug-21 06:30N 47°33' W 002°51'1 0.1
2017-Aug-20 19:59N 47°34' W 002°49'0 0.0
2017-Aug-20 19:29N 47°34' W 002°49'0 0.0
2017-Aug-20 18:59N 47°34' W 002°49'0 0.0
2017-Aug-20 18:29N 47°34' W 002°49'0 0.0
2017-Aug-20 17:53N 47°34' W 002°49'0 0.0
2017-Aug-20 17:29N 47°34' W 002°49'0 0.0
2017-Aug-20 16:59N 47°34' W 002°49'0 0.0
2017-Aug-20 16:28N 47°34' W 002°49'0 0.0
2017-Aug-19 13:59N 47°34' W 002°49'0 0.0
2017-Aug-18 12:35N 47°34' W 002°49'0 0.1
2017-Aug-18 12:29N 47°34' W 002°49'0 0.0
2017-Aug-18 11:59N 47°34' W 002°49'  
2017-Aug-15 12:37N 47°34' W 002°49'0 0.0
2017-Aug-15 12:26N 47°34' W 002°49'0 0.0
2017-Aug-15 11:52N 47°34' W 002°49'  
Track history (hours):
 
Tides and Currents Weather Stations Pressure Air Temp Water Temp Dewpoint Dewpoint Depression Visibility Wind Speed Wind Dir Waves Ship Positions

Gipsy 3

Last reported at 2017-Aug-21 15:31 UTC. Time now 2017-Sep-20 22:06 UTC.
Position N 47°19' W 003°01'.
Warning: this ship's position is 30 days out of date.

Length 9 m.

Type: Sailing vessel. MMSI: 227170890.

Date/timePositionNaut miles runAvg speedWind from/ knotsBaromVisibWave heightAir tempDewpointWater temp
2017-Aug-21 15:31N 47°19' W 003°01'1 3.5
2017-Aug-21 15:06N 47°19' W 002°59'0 3.3
2017-Aug-21 14:59N 47°20' W 002°59'2 3.3
2017-Aug-21 14:23N 47°21' W 002°57'1 3.7
2017-Aug-21 13:59N 47°23' W 002°56'2 3.8
2017-Aug-21 13:30N 47°24' W 002°56'2 3.5
2017-Aug-21 12:59N 47°26' W 002°56'2 3.4
2017-Aug-21 12:30N 47°28' W 002°56'2 3.2
2017-Aug-21 12:00N 47°29' W 002°56'2 3.2
2017-Aug-21 11:27N 47°31' W 002°55'2 3.7
2017-Aug-21 11:00N 47°33' W 002°55'2 4.7
2017-Aug-21 10:30N 47°34' W 002°52'2 3.9
2017-Aug-21 09:58N 47°34' W 002°49'0 0.0
2017-Aug-21 09:28N 47°34' W 002°49'0 0.0
2017-Aug-21 08:59N 47°34' W 002°49'0 0.0
2017-Aug-21 08:29N 47°34' W 002°49'0 0.0
2017-Aug-21 07:50N 47°34' W 002°49'1 2.4
2017-Aug-21 07:30N 47°33' W 002°50'1 1.3
2017-Aug-21 07:00N 47°33' W 002°51'0 0.8
2017-Aug-21 06:30N 47°33' W 002°51'1 0.1
2017-Aug-20 19:59N 47°34' W 002°49'0 0.0
2017-Aug-20 19:29N 47°34' W 002°49'0 0.0
2017-Aug-20 18:59N 47°34' W 002°49'0 0.0
2017-Aug-20 18:29N 47°34' W 002°49'0 0.0
2017-Aug-20 17:53N 47°34' W 002°49'0 0.0
2017-Aug-20 17:29N 47°34' W 002°49'0 0.0
2017-Aug-20 16:59N 47°34' W 002°49'0 0.0
2017-Aug-20 16:28N 47°34' W 002°49'0 0.0
2017-Aug-19 13:59N 47°34' W 002°49'0 0.0
2017-Aug-18 12:35N 47°34' W 002°49'0 0.1
2017-Aug-18 12:29N 47°34' W 002°49'0 0.0
2017-Aug-18 11:59N 47°34' W 002°49'  
2017-Aug-15 12:37N 47°34' W 002°49'0 0.0
2017-Aug-15 12:26N 47°34' W 002°49'0 0.0
2017-Aug-15 11:52N 47°34' W 002°49'  

Dump ship's entire track history